Flight Track Log - Related Links

Times and Time Zones

All times are in EDT time to prevent confusion due to time zone crossing. See the UAL298 flight status page for this flight to view local times or setup timezone preferences in your user account.

Time Position Orientation Groundspeed Altitude Reporting Facility
EDT Latitude Longitude Course Direction KTS MPH feet Rate Location/Type
Fri 05:19:12 PM 49.1667 -123.2167 90° East 170 196 1,200  Level Vancouver Center
Fri 05:20:12 PM 49.1667 -123.3167 270° West 220 253 2,500 2,050 Climbing Vancouver Center
Fri 05:21:00 PM 49.0038 -122.7153 111° Southeast  Level FlightAware Approximate
Fri 05:21:12 PM 49.1167 -123.3667 213° Southwest 250 288 5,300  Level Vancouver Center
Fri 05:22:00 PM 48.9333 -122.5664 90° East  Level FlightAware Approximate
Fri 05:22:12 PM 49.0833 -123.2833 121° Southeast 290 334 7,700  Level Vancouver Center
Fri 05:23:00 PM 48.9333 -122.3796 90° East  Level FlightAware Approximate
Fri 05:23:12 PM 49.0500 -123.1667 114° Southeast 300 345 10,400  Level Vancouver Center
Fri 05:24:00 PM 48.9335 -122.1929 90° East  Level FlightAware Approximate
Fri 05:24:12 PM 49.0333 -123.0333 101° East 360 414 11,300  Level Vancouver Center
Fri 05:25:12 PM 49.0000 -122.8500 105° East 380 437 13,900 2,150 Climbing Vancouver Center
Fri 05:26:12 PM 49.0000 -122.7000 90° East 390 449 15,600 1,800 Climbing Vancouver Center
Fri 05:27:12 PM 49.0000 -122.5333 90° East 400 460 17,500 1,700 Climbing Vancouver Center
Fri 05:28:12 PM 48.9833 -122.3500 98° East 410 472 19,000 1,500 Climbing Vancouver Center
Fri 05:29:12 PM 48.9833 -122.1667 90° East 430 495 20,500 1,550 Climbing Vancouver Center
Fri 05:30:12 PM 48.9667 -122.0000 99° East 440 506 22,100 1,400 Climbing Vancouver Center
Fri 05:31:12 PM 48.9667 -121.7833 90° East 450 518 23,300 1,250 Climbing Vancouver Center
Fri 05:32:12 PM 48.9500 -121.5833 97° East 460 529 24,600 1,250 Climbing Vancouver Center
Fri 05:33:12 PM 48.9500 -121.4167 90° East 470 541 25,800 1,150 Climbing Vancouver Center
Fri 05:34:12 PM 48.9167 -121.2000 103° East 480 552 26,900 1,050 Climbing Vancouver Center
Fri 05:35:12 PM 48.9167 -121.0000 90° East 480 552 27,900 950 Climbing Vancouver Center
Fri 05:36:12 PM 48.9167 -120.7833 90° East 490 564 28,800 950 Climbing Vancouver Center
Fri 05:37:12 PM 48.9000 -120.5667 97° East 500 575 29,800 1,050 Climbing Vancouver Center
Fri 05:38:12 PM 48.8833 -120.3667 97° East 500 575 30,900 1,050 Climbing Vancouver Center
Fri 05:39:12 PM 48.8667 -120.1667 97° East 500 575 31,900 981 Climbing Vancouver Center
Fri 05:39:56 PM 48.8736 -120.0242 86° East 494 568 32,600 914 Climbing Seattle Center
Fri 05:40:57 PM 48.8578 -119.8186 97° East 491 565 33,500 829 Climbing Seattle Center
Fri 05:41:59 PM 48.8425 -119.6147 96° East 488 562 34,300 585 Climbing Seattle Center
Fri 05:43:00 PM 48.8256 -119.4092 97° East 492 566 34,700 344 Climbing Seattle Center
Fri 05:44:01 PM 48.8092 -119.2022 97° East 495 570 35,000 98 Climbing Seattle Center
Fri 05:45:02 PM 48.7936 -118.9969 96° East 492 566 34,900 -49 Descending Seattle Center
Fri 05:46:03 PM 48.7756 -118.7942 98° East 490 564 34,900  Level Seattle Center
Fri 05:47:05 PM 48.7581 -118.5908 97° East 488 562 34,900  Level Seattle Center
Fri 05:48:06 PM 48.7400 -118.3861 98° East 490 564 34,900 49 Level Seattle Center
Fri 05:49:07 PM 48.7219 -118.1833 98° East 487 560 35,000 49 Climbing Seattle Center
Fri 05:50:08 PM 48.6992 -117.9400 98° East 486 559 35,000 -49 Level Seattle Center
Fri 05:51:10 PM 48.6803 -117.7392 98° East 485 558 34,900  Descending Seattle Center
Fri 05:52:11 PM 48.6606 -117.5361 98° East 487 560 35,000 49 Climbing Seattle Center
Fri 05:53:12 PM 48.6414 -117.3333 98° East 487 560 35,000  Level Seattle Center
Fri 05:54:13 PM 48.6203 -117.1311 99° East 486 559 35,000  Level Seattle Center
Fri 05:55:14 PM 48.6000 -116.9292 99° East 486 559 35,000  Level Seattle Center
Fri 05:56:16 PM 48.5789 -116.7261 99° East 487 560 35,000 -49 Level Seattle Center
Fri 05:57:17 PM 48.5575 -116.5247 99° East 487 560 34,900 -49 Descending Seattle Center
Fri 05:58:18 PM 48.5356 -116.3253 99° East 485 558 34,900 49 Level Seattle Center
Fri 05:59:19 PM 48.5139 -116.1258 99° East 484 557 35,000 49 Climbing Seattle Center
Fri 06:00:20 PM 48.4975 -115.9297 97° East 480 552 35,000  Level Seattle Center
Fri 06:01:21 PM 48.5050 -115.7231 87° East 486 559 35,000 -49 Level Seattle Center
Fri 06:02:23 PM 48.5058 -115.4786 90° East 488 562 34,900 -49 Descending Seattle Center
Fri 06:03:24 PM 48.5056 -115.2775 90° East 485 558 34,900 49 Level Seattle Center
Fri 06:04:25 PM 48.5053 -115.0739 90° East 485 558 35,000 49 Climbing Seattle Center
Fri 06:05:26 PM 48.5058 -114.8700 90° East 485 558 35,000  Level Seattle Center
Fri 06:06:27 PM 48.5050 -114.6647 90° East 486 559 35,000  Level Seattle Center
Fri 06:06:58 PM 48.5042 -114.5831 91° East 487 560 35,000  Level Salt Lake Center
Fri 06:08:00 PM 48.5033 -114.3775 90° East 487 560 35,000 -48 Level Salt Lake Center
Fri 06:09:02 PM 48.5014 -114.1319 91° East 486 559 34,900 -48 Descending Salt Lake Center
Fri 06:10:04 PM 48.4792 -113.9314 99° East 484 557 34,900 48 Level Salt Lake Center
Fri 06:11:06 PM 48.4311 -113.7406 111° Southeast 484 557 35,000 48 Climbing Salt Lake Center
Fri 06:12:08 PM 48.3806 -113.5536 112° Southeast 481 554 35,000 -48 Level Salt Lake Center
Fri 06:13:10 PM 48.3297 -113.3678 112° Southeast 480 552 34,900 -48 Descending Salt Lake Center
Fri 06:14:12 PM 48.2781 -113.1803 112° Southeast 483 556 34,900 48 Level Salt Lake Center
Fri 06:15:14 PM 48.2250 -112.9933 113° Southeast 485 558 35,000 48 Climbing Salt Lake Center
Fri 06:16:16 PM 48.1631 -112.7708 113° Southeast 484 557 35,000  Level Salt Lake Center
Fri 06:17:18 PM 48.1111 -112.5850 113° Southeast 484 557 35,000 -48 Level Salt Lake Center
Fri 06:18:20 PM 48.0564 -112.3958 113° Southeast 483 556 34,900 -48 Descending Salt Lake Center
Fri 06:19:22 PM 48.0042 -112.2128 113° Southeast 481 554 34,900  Level Salt Lake Center
Fri 06:20:24 PM 47.9511 -112.0294 113° Southeast 483 556 34,900 48 Level Salt Lake Center
Fri 06:21:26 PM 47.8972 -111.8461 114° Southeast 484 557 35,000 48 Climbing Salt Lake Center
Fri 06:22:28 PM 47.8433 -111.6608 113° Southeast 486 559 35,000  Level Salt Lake Center
Fri 06:23:30 PM 47.7894 -111.4772 114° Southeast 485 558 35,000  Level Salt Lake Center
Fri 06:24:32 PM 47.7253 -111.2508 113° Southeast 486 559 35,000  Level Salt Lake Center
Fri 06:25:33 PM 47.6661 -111.0606 115° Southeast 492 566 35,000 -49 Level Salt Lake Center
Fri 06:26:35 PM 47.6094 -110.8772 115° Southeast 487 560 34,900 -48 Descending Salt Lake Center
Fri 06:27:37 PM 47.5542 -110.6947 114° Southeast 486 559 34,900  Level Salt Lake Center
Fri 06:28:39 PM 47.4981 -110.5136 115° Southeast 486 559 34,900 48 Level Salt Lake Center
Fri 06:29:41 PM 47.4414 -110.3314 115° Southeast 488 562 35,000 48 Climbing Salt Lake Center
Fri 06:30:43 PM 47.3864 -110.1503 114° Southeast 485 558 35,000  Level Salt Lake Center
Fri 06:31:45 PM 47.3478 -109.9619 107° East 482 555 35,000 -48 Level Salt Lake Center
Fri 06:32:47 PM 47.3028 -109.7311 106° East 489 563 34,900 -49 Descending Salt Lake Center
Fri 06:33:48 PM 47.2658 -109.5428 106° East 483 556 34,900 49 Level Salt Lake Center
Fri 06:34:50 PM 47.2289 -109.3503 106° East 488 562 35,000 48 Climbing Salt Lake Center
Fri 06:35:52 PM 47.1931 -109.1575 105° East 491 565 35,000  Level Salt Lake Center
Fri 06:36:54 PM 47.1481 -108.9586 108° East 481 554 35,000  Level Salt Lake Center
Fri 06:37:56 PM 47.1111 -108.7731 106° East 473 544 35,000  Level Salt Lake Center
Fri 06:38:58 PM 47.0714 -108.5828 107° East 483 556 35,000  Level Salt Lake Center
Fri 06:40:00 PM 47.0325 -108.3939 107° East 484 557 35,000  Level Salt Lake Center
Fri 06:41:01 PM 46.9922 -108.1989 107° East 495 570 35,000  Level Salt Lake Center
Fri 06:42:03 PM 46.9444 -107.9681 107° East 496 571 35,000  Level Salt Lake Center
Fri 06:43:05 PM 46.9031 -107.7767 107° East 495 570 35,000  Level Salt Lake Center
Fri 06:44:07 PM 46.8619 -107.5856 107° East 494 568 35,000  Level Salt Lake Center
Fri 06:45:09 PM 46.8203 -107.4008 108° East 490 564 35,000  Level Salt Lake Center
Fri 06:46:11 PM 46.7797 -107.2133 107° East 486 559 35,000  Level Salt Lake Center
Fri 06:47:12 PM 46.7364 -107.0228 108° East 492 566 35,000  Level Salt Lake Center
Fri 06:48:14 PM 46.6947 -106.8353 108° East 490 564 35,000  Level Salt Lake Center
Fri 06:49:16 PM 46.6422 -106.6075 108° East 492 566 35,000  Level Salt Lake Center
Fri 06:50:18 PM 46.5981 -106.4175 109° East 494 568 35,000  Level Salt Lake Center
Fri 06:51:20 PM 46.5547 -106.2322 109° East 492 566 35,000  Level Salt Lake Center
Fri 06:52:21 PM 46.5108 -106.0458 109° East 491 565 35,000  Level Salt Lake Center
Fri 06:53:23 PM 46.4553 -105.8628 114° Southeast 493 567 35,000  Level Salt Lake Center
Fri 06:54:25 PM 46.3925 -105.6814 117° Southeast 500 575 35,000  Level Salt Lake Center
Fri 06:55:27 PM 46.3311 -105.5011 116° Southeast 501 577 35,000  Level Salt Lake Center
Fri 06:56:29 PM 46.2581 -105.2872 116° Southeast 497 572 35,000  Level Salt Lake Center
Fri 06:57:30 PM 46.2119 -105.1019 110° East 494 568 35,000  Level Salt Lake Center
Fri 06:58:32 PM 46.1814 -104.9117 103° East 490 564 35,000  Level Salt Lake Center
Fri 06:59:34 PM 46.1486 -104.7236 104° East 487 560 35,000  Level Salt Lake Center
Fri 07:00:36 PM 46.1164 -104.5319 104° East 490 564 35,000  Level Salt Lake Center
Fri 07:01:38 PM 46.0783 -104.3136 104° East 493 567 35,000  Level Salt Lake Center
Fri 07:02:40 PM 46.0444 -104.1222 104° East 495 570 35,000  Level Salt Lake Center
Fri 07:03:41 PM 46.0100 -103.9306 104° East 497 572 35,000 -49 Level Salt Lake Center
Fri 07:04:43 PM 45.9758 -103.7403 104° East 496 571 34,900 -47 Descending Salt Lake Center
Fri 07:05:48 PM 45.9403 -103.5508 105° East 494 568 34,900  Level Salt Lake Center
Fri 07:06:47 PM 45.9056 -103.3597 105° East 495 570 34,900 51 Level Salt Lake Center
Fri 07:07:45 PM 45.8714 -103.1719 105° East 497 572 35,000 50 Climbing Minneapolis Center
Fri 07:08:48 PM 45.8356 -102.9803 105° East 499 574 35,000  Level Minneapolis Center
Fri 07:09:50 PM 45.7922 -102.7536 105° East 497 572 35,000  Level Minneapolis Center
Fri 07:10:52 PM 45.7522 -102.5483 106° East 499 574 35,000  Level Minneapolis Center
Fri 07:11:54 PM 45.7169 -102.3569 105° East 500 575 35,000  Level Minneapolis Center
Fri 07:12:56 PM 45.6800 -102.1644 105° East 501 577 35,000  Level Minneapolis Center
Fri 07:13:58 PM 45.6428 -101.9736 106° East 501 577 35,000  Level Minneapolis Center
Fri 07:15:00 PM 45.6056 -101.7814 105° East 501 577 35,000  Level Minneapolis Center
Fri 07:16:02 PM 45.5667 -101.5908 106° East 501 577 35,000  Level Minneapolis Center
Fri 07:17:04 PM 45.5214 -101.3611 106° East 501 577 35,000  Level Minneapolis Center
Fri 07:18:06 PM 45.4817 -101.1722 107° East 500 575 35,000  Level Minneapolis Center
Fri 07:19:09 PM 45.4453 -100.9786 105° East 502 578 35,000  Level Minneapolis Center
Fri 07:20:11 PM 45.4078 -100.7903 106° East 498 573 35,000  Level Minneapolis Center
Fri 07:21:13 PM 45.3681 -100.6025 107° East 496 571 35,000  Level Minneapolis Center
Fri 07:22:15 PM 45.3272 -100.4133 107° East 498 573 35,000  Level Minneapolis Center
Fri 07:23:17 PM 45.2894 -100.2244 106° East 497 572 35,000  Level Minneapolis Center
Fri 07:24:19 PM 45.2514 -99.9908 103° East 499 574 35,000  Level Minneapolis Center
Fri 07:25:21 PM 45.2164 -99.7914 104° East 507 583 35,000  Level Minneapolis Center
Fri 07:26:23 PM 45.1811 -99.5956 104° East 507 583 35,000  Level Minneapolis Center
Fri 07:27:25 PM 45.1464 -99.4031 104° East 504 580 35,000  Level Minneapolis Center
Fri 07:28:27 PM 45.1122 -99.2108 104° East 502 578 35,000  Level Minneapolis Center
Fri 07:29:30 PM 45.0769 -99.0172 104° East 504 580 35,000  Level Minneapolis Center
Fri 07:30:32 PM 45.0419 -98.8236 104° East 507 583 35,000  Level Minneapolis Center
Fri 07:31:34 PM 45.0067 -98.6322 105° East 506 582 35,000  Level Minneapolis Center
Fri 07:32:36 PM 44.9639 -98.4017 105° East 506 582 35,000  Level Minneapolis Center
Fri 07:33:38 PM 44.9256 -98.2111 106° East 508 585 35,000  Level Minneapolis Center
Fri 07:34:40 PM 44.8883 -98.0197 105° East 507 583 35,000  Level Minneapolis Center
Fri 07:35:42 PM 44.8514 -97.8281 105° East 508 585 35,000  Level Minneapolis Center
Fri 07:36:44 PM 44.8136 -97.6364 105° East 508 585 35,000  Level Minneapolis Center
Fri 07:37:46 PM 44.7661 -97.4089 106° East 506 582 35,000  Level Minneapolis Center
Fri 07:38:48 PM 44.7286 -97.2169 105° East 508 585 35,000  Level Minneapolis Center
Fri 07:39:50 PM 44.6900 -97.0275 106° East 505 581 35,000  Level Minneapolis Center
Fri 07:40:52 PM 44.6528 -96.8375 105° East 504 580 35,000  Level Minneapolis Center
Fri 07:41:54 PM 44.6125 -96.6458 106° East 509 586 35,000  Level Minneapolis Center
Fri 07:42:56 PM 44.5728 -96.4556 106° East 507 583 35,000  Level Minneapolis Center
Fri 07:43:58 PM 44.5333 -96.2647 106° East 507 583 35,000  Level Minneapolis Center
Fri 07:45:00 PM 44.4931 -96.0728 106° East 507 583 35,000  Level Minneapolis Center
Fri 07:46:02 PM 44.4419 -95.8431 107° East 510 587 35,000  Level Minneapolis Center
Fri 07:47:04 PM 44.3992 -95.6528 107° East 510 587 35,000  Level Minneapolis Center
Fri 07:48:06 PM 44.3564 -95.4658 108° East 505 581 35,000  Level Minneapolis Center
Fri 07:49:08 PM 44.3144 -95.2775 107° East 506 582 35,000  Level Minneapolis Center
Fri 07:50:10 PM 44.2714 -95.0900 108° East 507 583 35,000  Level Minneapolis Center
Fri 07:51:12 PM 44.2286 -94.9033 108° East 507 583 35,000  Level Minneapolis Center
Fri 07:52:14 PM 44.1817 -94.7164 109° East 510 587 35,000  Level Minneapolis Center
Fri 07:53:16 PM 44.1436 -94.5136 105° East 508 585 35,000  Level Minneapolis Center
Fri 07:54:18 PM 44.1183 -94.3239 100° East 504 580 35,000  Level Minneapolis Center
Fri 07:55:20 PM 44.0833 -94.0964 102° East 503 579 35,000  Level Minneapolis Center
Fri 07:56:22 PM 43.9900 -93.9583 133° Southeast 495 570 35,000  Level Minneapolis Center
Fri 07:57:24 PM 43.8650 -93.9147 166° South 468 539 35,000  Level Minneapolis Center
Fri 07:58:26 PM 43.7381 -93.9025 176° South 462 532 35,000  Level Minneapolis Center
Fri 07:59:28 PM 43.6106 -93.8872 175° South 460 529 35,000  Level Minneapolis Center
Fri 08:00:30 PM 43.4642 -93.8689 175° South 463 533 35,000  Level Minneapolis Center
Fri 08:01:32 PM 43.3358 -93.8558 176° South 466 536 35,000  Level Minneapolis Center
Fri 08:02:34 PM 43.2089 -93.8417 175° South 464 534 35,000  Level Minneapolis Center
Fri 08:03:36 PM 43.0831 -93.8272 175° South 460 529 35,000  Level Minneapolis Center
Fri 08:04:38 PM 42.9317 -93.8153 177° South 459 528 35,000  Level Minneapolis Center
Fri 08:05:39 PM 42.8278 -93.8783 204° Southwest 414 476 35,000  Level Minneapolis Center
Fri 08:06:53 PM 42.7369 -93.9658 215° Southwest 405 466 35,000  Level Minneapolis Center
Fri 08:07:56 PM 42.6281 -94.0711 215° Southwest 405 466 35,000  Level Minneapolis Center
Fri 08:08:58 PM 42.5331 -94.1508 212° Southwest 405 466 35,000  Level Minneapolis Center
Fri 08:09:59 PM 42.3783 -94.1231 172° South 478 550 35,000  Level Minneapolis Center
Fri 08:11:01 PM 42.2544 -94.0589 159° South 483 556 35,000  Level Minneapolis Center
Fri 08:12:03 PM 42.1283 -93.9936 159° South 479 551 35,000  Level Minneapolis Center
Fri 08:13:17 PM 41.9778 -93.9178 159° South 479 551 35,000  Level Minneapolis Center
Fri 08:14:19 PM 41.8592 -93.8589 160° South 478 550 35,000  Level Minneapolis Center
Fri 08:15:21 PM 41.7119 -93.7847 159° South 475 547 35,000  Level Minneapolis Center
Fri 08:16:23 PM 41.5892 -93.7228 159° South 474 545 35,000 48 Level Minneapolis Center
Fri 08:17:25 PM 41.4994 -93.5878 132° Southeast 494 568 35,100  Climbing Minneapolis Center
Fri 08:18:27 PM 41.4769 -93.3986 99° East 513 590 35,000 -48 Descending Minneapolis Center
Fri 08:19:29 PM 41.4636 -93.2119 95° East 511 588 35,000  Level Minneapolis Center
Fri 08:20:31 PM 41.4511 -93.0264 95° East 507 583 35,000  Level Minneapolis Center
Fri 08:21:33 PM 41.4353 -92.8058 95° East 504 580 35,000  Level Minneapolis Center
Fri 08:22:35 PM 41.4228 -92.6225 95° East 501 577 35,000  Level Minneapolis Center
Fri 08:23:37 PM 41.4094 -92.4375 95° East 503 579 35,000  Level Minneapolis Center
Fri 08:24:39 PM 41.3950 -92.2531 96° East 503 579 35,000  Level Minneapolis Center
Fri 08:25:41 PM 41.3806 -92.0683 96° East 503 579 35,000 -194 Level Minneapolis Center
Fri 08:26:43 PM 41.3631 -91.8425 96° East 509 586 34,600 -290 Descending Minneapolis Center
Fri 08:27:45 PM 41.3481 -91.6733 97° East 511 588 34,400 -658 Descending Minneapolis Center
Fri 08:29:09 PM 41.3281 -91.4144 96° East 506 582 33,000 -986 Descending Chicago Center
Fri 08:30:11 PM 41.3111 -91.2192 97° East 512 589 32,000 -919 Descending Chicago Center
Fri 08:31:13 PM 41.2950 -91.0317 96° East 511 588 31,100 -968 Descending Chicago Center
Fri 08:32:15 PM 41.2786 -90.8408 96° East 519 597 30,000 -1,016 Descending Chicago Center
Fri 08:33:17 PM 41.2589 -90.6225 97° East 495 570 29,000 -968 Descending Chicago Center
Fri 08:34:19 PM 41.2428 -90.4464 97° East 482 555 28,000 -968 Descending Chicago Center
Fri 08:35:21 PM 41.2269 -90.2686 97° East 483 556 27,000 -919 Descending Chicago Center
Fri 08:36:23 PM 41.2097 -90.0933 97° East 478 550 26,100 -912 Descending Chicago Center
Fri 08:37:26 PM 41.1917 -89.9175 98° East 478 550 25,100 -912 Descending Chicago Center
Fri 08:38:28 PM 41.1758 -89.7419 97° East 475 547 24,200 -629 Descending Chicago Center
Fri 08:39:30 PM 41.1717 -89.5714 92° East 466 536 23,800 -629 Descending Chicago Center
Fri 08:40:32 PM 41.2369 -89.4036 63° Northeast 430 495 22,900 -823 Descending Chicago Center
Fri 08:41:34 PM 41.2897 -89.2650 63° Northeast 421 484 22,100 -774 Descending Chicago Center
Fri 08:42:36 PM 41.2914 -89.0933 89° East 430 495 21,300 -774 Descending Chicago Center
Fri 08:43:38 PM 41.2633 -88.9442 104° East 430 495 20,500 -1,210 Descending Chicago Center
Fri 08:44:40 PM 41.2789 -88.8014 82° East 415 478 18,800 -1,839 Descending Chicago Center
Fri 08:45:42 PM 41.3553 -88.7014 44° Northeast 387 445 16,700 -2,032 Descending Chicago Center
Fri 08:46:44 PM 41.4344 -88.6053 42° Northeast 387 445 14,600 -1,920 Descending Chicago Center
Fri 08:47:47 PM 41.5156 -88.5039 43° Northeast 397 457 12,700 -1,872 Descending Chicago Center
Fri 08:48:49 PM 41.6094 -88.3858 43° Northeast 385 443 10,700 -1,210 Descending Chicago Center
Fri 08:49:51 PM 41.6811 -88.2950 43° Northeast 349 402 10,200 -726 Descending Chicago Center
Fri 08:50:53 PM 41.7458 -88.2125 44° Northeast 323 372 9,200 -968 Descending Chicago Center
Fri 08:51:55 PM 41.8078 -88.1333 44° Northeast 310 357 8,200 -871 Descending Chicago Center
Fri 08:52:57 PM 41.8675 -88.0592 43° Northeast 295 339 7,400 -540 Descending Chicago Center
Fri 08:53:35 PM 41.9000 -88.0000 54° Northeast 267 307 7,300 -245 Descending Chicago TRACON
Fri 08:54:35 PM 41.9000 -87.9000 90° East 268 308 7,000 -150 Descending Chicago TRACON
Fri 08:55:35 PM 41.8833 -87.8000 103° East 254 292 7,000 -381 Level Chicago TRACON
Fri 08:56:41 PM 41.9000 -87.7167 75° East 206 237 6,200 -857 Descending Chicago TRACON
Fri 08:57:41 PM 41.8833 -87.6500 109° East 209 241 5,200 -895 Descending Chicago TRACON
Fri 08:58:35 PM 41.8833 -87.5667 90° East 203 234 4,500 -614 Descending Chicago TRACON
Fri 08:59:09 PM 41.8747 -87.5433 116° Southeast 205 236 4,300 -313 Descending Chicago Center
Fri 09:00:11 PM 41.8667 -87.4714 99° East 200 230 4,000 -144 Descending Chicago Center
Fri 09:01:14 PM 41.8903 -87.3936 68° East 208 239 4,000  Level Chicago Center
Fri 09:02:15 PM 41.9389 -87.3900 North 183 211 4,000  Level Chicago Center
Fri 09:03:18 PM 41.9664 -87.4347 310° West 176 203 4,000  Level Chicago Center
Fri 09:04:20 PM 41.9683 -87.4986 272° West 174 200 4,000  Level Chicago Center
Fri 09:05:22 PM 41.9686 -87.5622 270° West 172 198 4,000  Level Chicago Center
Fri 09:06:24 PM 41.9689 -87.6369 270° West 170 196 4,000 -290 Level Chicago Center
Fri 09:07:26 PM 41.9681 -87.6989 269° West 168 193 3,400 -726 Descending Chicago Center
Fri 09:08:28 PM 41.9683 -87.7628 270° West 172 198 2,500 -871 Descending Chicago Center
Fri 09:09:30 PM 41.9697 -87.8233 272° West 169 194 1,600 -435 Descending Chicago Center
Fri 09:10:32 PM 41.9711 -87.8872 272° West 164 189 1,600  Level Chicago Center

Login

Don't have an account? Register now (free) for customized features, flight alerts, and more!